Flight Track Log - Related Links

Times and Time Zones

All times are in EST time to prevent confusion due to time zone crossing. See the RPA3340 flight status page for this flight to view local times or setup timezone preferences in your user account.

Time Position Orientation Groundspeed Altitude Reporting Facility
EST Latitude Longitude Course Direction KTS MPH feet Rate Location/Type
Tue 01:07:37 PM 42.9500 -71.4333 319° Northwest 156 180 1,000  Level KA90
Tue 01:08:16 PM 42.9681 -71.4544 319° Northwest 158 182 2,400 2,941 Climbing Boston Center
Tue 01:09:19 PM 43.0231 -71.4406 10° North 224 258 6,000 3,048 Climbing Boston Center
Tue 01:10:20 PM 43.0372 -71.3353 80° East 286 329 8,700 2,410 Climbing Boston Center
Tue 01:11:21 PM 43.0489 -71.2133 83° East 323 372 10,900 2,410 Climbing Boston Center
Tue 01:12:22 PM 43.0697 -71.0711 79° East 379 436 13,600 2,705 Climbing Boston Center
Tue 01:13:23 PM 43.0433 -70.9394 105° East 380 437 16,400 2,777 Climbing Boston Center
Tue 01:14:23 PM 42.9681 -70.8956 157° South 339 390 19,200 2,450 Climbing Boston Center
Tue 01:15:23 PM 42.8883 -70.9275 196° South 307 353 21,300 2,195 Climbing Boston Center
Tue 01:16:26 PM 42.7878 -70.9758 199° South 318 366 23,700 2,081 Climbing Boston Center
Tue 01:17:27 PM 42.7000 -71.0194 200° South 330 380 25,600 1,721 Climbing Boston Center
Tue 01:18:28 PM 42.6086 -71.0644 200° South 346 398 27,200 1,190 Climbing Boston Center
Tue 01:19:28 PM 42.5161 -71.1097 200° South 353 406 28,000 400 Climbing Boston Center
Tue 01:20:28 PM 42.4258 -71.1708 207° Southwest 358 412 28,000  Level Boston Center
Tue 01:21:32 PM 42.3808 -71.2828 241° Southwest 342 394 28,000  Level Boston Center
Tue 01:22:33 PM 42.3442 -71.4028 248° West 343 395 28,000  Level Boston Center
Tue 01:23:33 PM 42.3064 -71.5286 248° West 350 403 28,000  Level Boston Center
Tue 01:24:34 PM 42.2689 -71.6492 247° West 350 403 28,000  Level Boston Center
Tue 01:25:34 PM 42.2328 -71.7706 248° West 348 400 28,000  Level Boston Center
Tue 01:26:35 PM 42.1950 -71.8906 247° West 347 399 28,000  Level Boston Center
Tue 01:27:36 PM 42.1567 -72.0086 246° West 345 397 28,000  Level Boston Center
Tue 01:28:37 PM 42.1197 -72.1292 248° West 347 399 28,000  Level Boston Center
Tue 01:29:37 PM 42.0817 -72.2492 247° West 347 399 28,000  Level Boston Center
Tue 01:30:40 PM 42.0431 -72.3703 247° West 348 400 28,000  Level Boston Center
Tue 01:31:41 PM 42.0061 -72.4861 247° West 344 396 28,000  Level Boston Center
Tue 01:32:41 PM 41.9603 -72.6289 247° West 345 397 28,000  Level Boston Center
Tue 01:33:42 PM 41.9067 -72.7381 237° Southwest 356 410 28,000  Level Boston Center
Tue 01:34:41 PM 41.8361 -72.8333 225° Southwest 358 412 28,000  Level Boston Center
Tue 01:35:45 PM 41.7678 -72.9258 225° Southwest 352 405 28,000  Level Boston Center
Tue 01:36:45 PM 41.6972 -73.0214 225° Southwest 357 411 28,000  Level Boston Center
Tue 01:37:45 PM 41.6272 -73.1167 226° Southwest 357 411 28,000  Level Boston Center
Tue 01:38:46 PM 41.5569 -73.2128 226° Southwest 359 413 28,000  Level Boston Center
Tue 01:39:47 PM 41.4900 -73.3042 226° Southwest 359 413 28,000  Level Boston Center
Tue 01:40:47 PM 41.4206 -73.3969 225° Southwest 356 410 28,000  Level Boston Center
Tue 01:41:47 PM 41.3508 -73.4897 225° Southwest 355 409 28,000  Level Boston Center
Tue 01:42:50 PM 41.2808 -73.5819 225° Southwest 356 410 28,000  Level Boston Center
Tue 01:43:51 PM 41.2103 -73.7008 232° Southwest 344 396 28,000  Level Boston Center
Tue 01:44:50 PM 41.1508 -73.8011 232° Southwest 346 398 28,000  Level Boston Center
Tue 01:45:42 PM 41.1061 -73.8772 232° Southwest 352 405 28,000  Level New York Center
Tue 01:46:42 PM 41.0494 -73.9764 233° Southwest 347 399 28,000  Level New York Center
Tue 01:47:42 PM 40.9925 -74.0728 232° Southwest 342 394 28,000  Level New York Center
Tue 01:48:42 PM 40.9356 -74.1689 232° Southwest 342 394 28,000  Level New York Center
Tue 01:49:42 PM 40.8661 -74.2722 228° Southwest 342 394 28,000  Level New York Center
Tue 01:50:42 PM 40.8069 -74.3681 231° Southwest 342 394 28,000  Level New York Center
Tue 01:51:42 PM 40.7475 -74.4633 231° Southwest 342 394 28,000  Level New York Center
Tue 01:52:42 PM 40.6903 -74.5644 233° Southwest 342 394 28,000  Level New York Center
Tue 01:53:42 PM 40.6308 -74.6650 232° Southwest 342 394 28,000  Level New York Center
Tue 01:54:42 PM 40.5711 -74.7628 231° Southwest 347 399 28,000  Level New York Center
Tue 01:55:42 PM 40.5033 -74.8569 227° Southwest 352 405 28,000  Level New York Center
Tue 01:56:42 PM 40.4397 -74.9486 228° Southwest 352 405 28,000  Level New York Center
Tue 01:57:42 PM 40.3739 -75.0428 227° Southwest 352 405 28,000 -650 Level New York Center
Tue 01:58:42 PM 40.3081 -75.1339 227° Southwest 352 405 26,700 -1,500 Descending New York Center
Tue 01:59:42 PM 40.2464 -75.2225 228° Southwest 347 399 25,000 -1,700 Descending New York Center
Tue 02:00:42 PM 40.1847 -75.3081 227° Southwest 341 392 23,300 -1,500 Descending New York Center
Tue 02:01:42 PM 40.1231 -75.3883 225° Southwest 328 377 22,000 -650 Descending New York Center
Tue 02:02:42 PM 40.0678 -75.4689 228° Southwest 328 377 22,000  Level New York Center
Tue 02:03:42 PM 40.0083 -75.5514 227° Southwest 328 377 22,000  Level New York Center
Tue 02:04:42 PM 39.9486 -75.6367 228° Southwest 328 377 22,000  Level New York Center
Tue 02:05:42 PM 39.8925 -75.7275 231° Southwest 328 377 22,000 -450 Level New York Center
Tue 02:06:42 PM 39.8389 -75.8158 232° Southwest 322 371 21,100 -1,000 Descending New York Center
Tue 02:07:42 PM 39.7828 -75.9036 230° Southwest 322 371 20,000 -1,200 Descending New York Center
Tue 02:08:42 PM 39.7228 -75.9936 229° Southwest 317 365 18,700 -1,200 Descending New York Center
Tue 02:09:42 PM 39.6714 -76.0708 229° Southwest 317 365 17,600 -1,250 Descending New York Center
Tue 02:10:42 PM 39.6083 -76.1711 231° Southwest 329 379 16,200 -1,435 Descending New York Center
Tue 02:12:00 PM 39.5333 -76.2833 229° Southwest 299 344 14,300 -1,500 Descending Potomac TRACON
Tue 02:12:54 PM 39.5000 -76.3500 237° Southwest 300 345 12,900 -1,150 Descending Potomac TRACON
Tue 02:14:00 PM 39.4333 -76.4333 224° Southwest 308 354 12,000 -905 Descending Potomac TRACON
Tue 02:15:00 PM 39.3500 -76.5000 212° Southwest 312 359 11,000 -950 Descending Potomac TRACON
Tue 02:16:00 PM 39.2833 -76.5667 218° Southwest 301 346 10,100 -500 Descending Potomac TRACON
Tue 02:17:00 PM 39.2167 -76.6167 210° Southwest 273 314 10,000 -52 Descending Potomac TRACON
Tue 02:17:55 PM 39.1667 -76.6667 218° Southwest 256 295 10,000  Level Potomac TRACON
Tue 02:18:55 PM 39.1167 -76.7167 218° Southwest 244 281 10,000 -158 Level Potomac TRACON
Tue 02:19:49 PM 39.0667 -76.7833 226° Southwest 242 278 9,700 -1,158 Descending Potomac TRACON
Tue 02:20:49 PM 39.0333 -76.8333 229° Southwest 239 275 7,800 -1,785 Descending Potomac TRACON
Tue 02:21:50 PM 38.9833 -76.9000 226° Southwest 242 278 6,100 -893 Descending Potomac TRACON
Tue 02:22:50 PM 38.9167 -76.9333 201° Southwest 258 297 6,000 -579 Descending Potomac TRACON
Tue 02:23:44 PM 38.8500 -76.9500 191° South 269 310 5,000 -1,000 Descending Potomac TRACON
Tue 02:24:50 PM 38.7667 -76.9500 180° South 268 308 4,000 -1,388 Descending Potomac TRACON
Tue 02:25:45 PM 38.7333 -76.9833 218° Southwest 219 252 2,200 -1,240 Descending Potomac TRACON
Tue 02:26:51 PM 38.7500 -77.0333 293° West 184 212 1,500 -650 Descending Potomac TRACON
Tue 02:27:45 PM 38.8000 -77.0333 360° North 169 194 900 -667 Descending Potomac TRACON

Login

Don't have an account? Register now (free) for customized features, flight alerts, and more!